Time,TemperatureF,DewpointF,PressureIn,WindDirection,WindDirectionDegrees,WindSpeedMPH,WindSpeedGustMPH,Humidity,HourlyPrecipIn,Conditions,Clouds,dailyrainin,SolarRadiationWatts/m^2,SoftwareType,DateUTC
2013-10-08 00:02:00,42.0,36.0,-100.00,SSW,203,1.0,16.0,80,0.00,,,0.04,0.000000,,2013-10-08 07:02:00,
2013-10-08 00:11:00,42.0,36.0,-100.00,SSW,203,1.0,16.0,80,0.00,,,0.04,0.000000,,2013-10-08 07:11:00,
2013-10-08 00:42:00,40.0,36.0,-100.00,SW,226,2.0,9.0,85,0.00,,,0.04,0.000000,,2013-10-08 07:42:00,
2013-10-08 00:52:00,40.0,36.0,-100.00,SW,226,2.0,9.0,85,0.00,,,0.04,0.000000,,2013-10-08 07:52:00,
2013-10-08 01:02:00,40.0,36.0,-100.00,SW,226,2.0,9.0,85,0.00,,,0.04,0.000000,,2013-10-08 08:02:00,
2013-10-08 01:12:00,40.0,36.0,-100.00,SW,226,2.0,9.0,85,0.00,,,0.04,0.000000,,2013-10-08 08:12:00,
2013-10-08 01:42:00,39.0,36.0,-100.00,North,10,0.0,8.0,88,0.00,,,0.04,0.000000,,2013-10-08 08:42:00,
2013-10-08 01:52:00,39.0,36.0,-100.00,North,10,0.0,8.0,88,0.00,,,0.04,0.000000,,2013-10-08 08:52:00,
2013-10-08 02:02:00,39.0,36.0,-100.00,North,10,0.0,8.0,88,0.00,,,0.04,0.000000,,2013-10-08 09:02:00,
2013-10-08 02:12:00,39.0,36.0,-100.00,North,10,0.0,8.0,88,0.00,,,0.04,0.000000,,2013-10-08 09:12:00,
2013-10-08 02:43:00,41.0,35.0,-100.00,WNW,297,3.0,11.0,79,0.00,,,0.04,0.000000,,2013-10-08 09:43:00,
2013-10-08 02:53:00,41.0,35.0,-100.00,WNW,297,3.0,11.0,79,0.00,,,0.04,0.000000,,2013-10-08 09:53:00,
2013-10-08 03:03:00,41.0,35.0,-100.00,WNW,297,3.0,11.0,79,0.00,,,0.04,0.000000,,2013-10-08 10:03:00,
2013-10-08 03:12:00,41.0,35.0,-100.00,WNW,297,3.0,11.0,79,0.00,,,0.04,0.000000,,2013-10-08 10:12:00,
2013-10-08 03:42:00,43.0,35.0,-100.00,WNW,283,5.0,14.0,74,0.00,,,0.04,0.000000,,2013-10-08 10:42:00,
2013-10-08 03:53:00,43.0,35.0,-100.00,WNW,283,5.0,14.0,74,0.00,,,0.04,0.000000,,2013-10-08 10:53:00,
2013-10-08 04:02:00,43.0,35.0,-100.00,WNW,283,5.0,14.0,74,0.00,,,0.04,0.000000,,2013-10-08 11:02:00,
2013-10-08 04:12:00,43.0,35.0,-100.00,WNW,283,5.0,14.0,74,0.00,,,0.04,0.000000,,2013-10-08 11:12:00,
2013-10-08 04:42:00,42.0,34.0,-100.00,WSW,255,10.0,23.0,74,0.00,,,0.04,0.000000,,2013-10-08 11:42:00,
2013-10-08 04:52:00,42.0,34.0,-100.00,WSW,255,10.0,23.0,74,0.00,,,0.04,0.000000,,2013-10-08 11:52:00,
2013-10-08 05:02:00,42.0,34.0,-100.00,WSW,255,10.0,23.0,74,0.00,,,0.04,0.000000,,2013-10-08 12:02:00,
2013-10-08 05:12:00,42.0,34.0,-100.00,WSW,255,10.0,23.0,74,0.00,,,0.04,0.000000,,2013-10-08 12:12:00,
2013-10-08 05:42:00,40.0,36.0,-100.00,SW,234,7.0,23.0,86,0.00,,,0.04,0.000000,,2013-10-08 12:42:00,
2013-10-08 05:52:00,40.0,36.0,-100.00,SW,234,7.0,23.0,86,0.00,,,0.04,0.000000,,2013-10-08 12:52:00,
2013-10-08 06:01:00,40.0,36.0,-100.00,SW,234,7.0,23.0,86,0.00,,,0.04,0.000000,,2013-10-08 13:01:00,
2013-10-08 06:11:00,40.0,36.0,-100.00,SW,234,7.0,23.0,86,0.00,,,0.04,0.000000,,2013-10-08 13:11:00,
2013-10-08 06:42:00,40.0,38.0,-100.00,SW,214,3.0,14.0,91,0.00,,,0.03,0.000000,,2013-10-08 13:42:00,
2013-10-08 06:52:00,40.0,38.0,-100.00,SW,214,3.0,14.0,91,0.00,,,0.03,0.000000,,2013-10-08 13:52:00,
2013-10-08 07:02:00,40.0,38.0,-100.00,SW,214,3.0,14.0,91,0.00,,,0.03,0.000000,,2013-10-08 14:02:00,
2013-10-08 07:11:00,40.0,38.0,-100.00,SW,214,3.0,14.0,91,0.00,,,0.03,0.000000,,2013-10-08 14:11:00,
2013-10-08 07:42:00,39.0,38.0,-100.00,SSW,205,3.0,11.0,95,0.01,,,0.04,0.000000,,2013-10-08 14:42:00,
2013-10-08 07:52:00,39.0,38.0,-100.00,SSW,205,3.0,11.0,95,0.01,,,0.04,0.000000,,2013-10-08 14:52:00,
2013-10-08 08:01:00,39.0,38.0,-100.00,SSW,205,3.0,11.0,95,0.01,,,0.04,0.000000,,2013-10-08 15:01:00,
2013-10-08 08:11:00,39.0,38.0,-100.00,SSW,205,3.0,11.0,95,0.01,,,0.04,0.000000,,2013-10-08 15:11:00,
2013-10-08 08:44:00,39.0,38.0,-100.00,South,190,3.0,10.0,97,0.01,,,0.04,17.000000,,2013-10-08 15:44:00,
2013-10-08 08:53:00,39.0,38.0,-100.00,South,190,3.0,10.0,97,0.01,,,0.04,17.000000,,2013-10-08 15:53:00,
2013-10-08 09:03:00,39.0,38.0,-100.00,South,190,3.0,10.0,97,0.01,,,0.04,17.000000,,2013-10-08 16:03:00,
2013-10-08 09:13:00,39.0,38.0,-100.00,South,190,3.0,10.0,97,0.01,,,0.04,17.000000,,2013-10-08 16:13:00,
2013-10-08 09:42:00,40.0,39.0,-100.00,SSW,195,4.0,9.0,97,0.01,,,0.03,43.000000,,2013-10-08 16:42:00,
2013-10-08 09:53:00,40.0,39.0,-100.00,SSW,195,4.0,9.0,97,0.01,,,0.03,43.000000,,2013-10-08 16:53:00,
2013-10-08 10:02:00,40.0,39.0,-100.00,SSW,195,4.0,9.0,97,0.01,,,0.03,43.000000,,2013-10-08 17:02:00,
2013-10-08 10:12:00,40.0,39.0,-100.00,SSW,195,4.0,9.0,97,0.01,,,0.03,43.000000,,2013-10-08 17:12:00,
2013-10-08 10:43:00,43.0,42.0,-100.00,South,189,3.0,10.0,97,0.01,,,0.04,112.000000,,2013-10-08 17:43:00,
2013-10-08 10:52:00,43.0,42.0,-100.00,South,189,3.0,10.0,97,0.01,,,0.04,112.000000,,2013-10-08 17:52:00,
2013-10-08 11:02:00,43.0,42.0,-100.00,South,189,3.0,10.0,97,0.01,,,0.04,112.000000,,2013-10-08 18:02:00,
2013-10-08 11:11:00,43.0,42.0,-100.00,South,189,3.0,10.0,97,0.01,,,0.04,112.000000,,2013-10-08 18:11:00,
2013-10-08 11:42:00,44.0,42.0,-100.00,SW,216,2.0,8.0,93,0.01,,,0.05,196.000000,,2013-10-08 18:42:00,
2013-10-08 11:53:00,44.0,42.0,-100.00,SW,216,2.0,8.0,93,0.01,,,0.05,196.000000,,2013-10-08 18:53:00,
2013-10-08 12:02:00,44.0,42.0,-100.00,SW,216,2.0,8.0,93,0.01,,,0.05,196.000000,,2013-10-08 19:02:00,
2013-10-08 12:11:00,44.0,42.0,-100.00,SW,216,2.0,8.0,93,0.01,,,0.05,196.000000,,2013-10-08 19:11:00,
2013-10-08 12:43:00,45.0,42.0,-100.00,SW,223,3.0,12.0,88,0.02,,,0.07,206.000000,,2013-10-08 19:43:00,
2013-10-08 12:52:00,45.0,42.0,-100.00,SW,223,3.0,12.0,88,0.02,,,0.07,206.000000,,2013-10-08 19:52:00,
2013-10-08 13:02:00,45.0,42.0,-100.00,SW,223,3.0,12.0,88,0.02,,,0.07,206.000000,,2013-10-08 20:02:00,
2013-10-08 13:12:00,45.0,42.0,-100.00,SW,223,3.0,12.0,88,0.02,,,0.07,206.000000,,2013-10-08 20:12:00,
2013-10-08 13:42:00,46.0,42.0,-100.00,WSW,238,5.0,11.0,85,0.03,,,0.10,290.000000,,2013-10-08 20:42:00,
2013-10-08 13:52:00,46.0,42.0,-100.00,WSW,238,5.0,11.0,85,0.03,,,0.10,290.000000,,2013-10-08 20:52:00,
2013-10-08 14:01:00,46.0,42.0,-100.00,WSW,238,5.0,11.0,85,0.03,,,0.10,290.000000,,2013-10-08 21:01:00,
2013-10-08 14:12:00,46.0,42.0,-100.00,WSW,238,5.0,11.0,85,0.03,,,0.10,290.000000,,2013-10-08 21:12:00,
2013-10-08 14:44:00,47.0,41.0,-100.00,WSW,256,3.0,18.0,81,0.00,,,0.10,422.000000,,2013-10-08 21:44:00,
2013-10-08 14:54:00,47.0,41.0,-100.00,WSW,256,3.0,18.0,81,0.00,,,0.10,422.000000,,2013-10-08 21:54:00,
2013-10-08 15:03:00,47.0,41.0,-100.00,WSW,256,3.0,18.0,81,0.00,,,0.10,422.000000,,2013-10-08 22:03:00,
2013-10-08 15:13:00,47.0,41.0,-100.00,WSW,256,3.0,18.0,81,0.00,,,0.10,422.000000,,2013-10-08 22:13:00,
2013-10-08 15:49:00,44.0,41.0,-100.00,SSE,156,0.0,11.0,89,0.05,,,0.15,221.000000,,2013-10-08 22:49:00,
2013-10-08 15:57:00,44.0,41.0,-100.00,SSE,156,0.0,11.0,89,0.05,,,0.15,221.000000,,2013-10-08 22:57:00,
2013-10-08 16:03:00,44.0,41.0,-100.00,SSE,156,0.0,11.0,89,0.05,,,0.15,221.000000,,2013-10-08 23:03:00,
2013-10-08 16:12:00,44.0,41.0,-100.00,SSE,156,0.0,11.0,89,0.05,,,0.15,221.000000,,2013-10-08 23:12:00,
2013-10-08 16:42:00,45.0,39.0,-100.00,WNW,293,2.0,10.0,79,0.02,,,0.17,280.000000,,2013-10-08 23:42:00,
2013-10-08 16:52:00,45.0,39.0,-100.00,WNW,293,2.0,10.0,79,0.02,,,0.17,280.000000,,2013-10-08 23:52:00,
2013-10-08 17:02:00,45.0,39.0,-100.00,WNW,293,2.0,10.0,79,0.02,,,0.17,280.000000,,2013-10-09 00:02:00,
2013-10-08 17:12:00,45.0,39.0,-100.00,WNW,293,2.0,10.0,79,0.02,,,0.17,280.000000,,2013-10-09 00:12:00,
2013-10-08 17:43:00,44.0,38.0,-100.00,North,359,2.0,10.0,79,0.01,,,0.18,151.000000,,2013-10-09 00:43:00,
2013-10-08 17:52:00,44.0,38.0,-100.00,North,359,2.0,10.0,79,0.01,,,0.18,151.000000,,2013-10-09 00:52:00,
2013-10-08 18:01:00,44.0,38.0,-100.00,North,359,2.0,10.0,79,0.01,,,0.18,151.000000,,2013-10-09 01:01:00,
2013-10-08 18:12:00,44.0,38.0,-100.00,North,359,2.0,10.0,79,0.01,,,0.18,151.000000,,2013-10-09 01:12:00,
2013-10-08 18:43:00,39.0,37.0,-100.00,North,5,2.0,11.0,91,0.00,,,0.18,73.000000,,2013-10-09 01:43:00,
2013-10-08 18:52:00,39.0,37.0,-100.00,North,5,2.0,11.0,91,0.00,,,0.18,73.000000,,2013-10-09 01:52:00,
2013-10-08 19:02:00,39.0,37.0,-100.00,North,5,2.0,11.0,91,0.00,,,0.18,73.000000,,2013-10-09 02:02:00,
2013-10-08 19:12:00,39.0,37.0,-100.00,North,5,2.0,11.0,91,0.00,,,0.18,73.000000,,2013-10-09 02:12:00,
2013-10-08 19:42:00,38.0,36.0,-100.00,WNW,285,0.0,4.0,92,0.00,,,0.18,4.000000,,2013-10-09 02:42:00,
2013-10-08 19:52:00,38.0,36.0,-100.00,WNW,285,0.0,4.0,92,0.00,,,0.18,4.000000,,2013-10-09 02:52:00,
2013-10-08 20:02:00,38.0,36.0,-100.00,WNW,285,0.0,4.0,92,0.00,,,0.18,4.000000,,2013-10-09 03:02:00,
2013-10-08 20:11:00,38.0,36.0,-100.00,WNW,285,0.0,4.0,92,0.00,,,0.18,4.000000,,2013-10-09 03:11:00,
2013-10-08 20:45:00,37.0,34.0,-100.00,NNW,347,3.0,6.0,87,0.00,,,0.18,0.000000,,2013-10-09 03:45:00,
2013-10-08 20:54:00,37.0,34.0,-100.00,NNW,347,3.0,6.0,87,0.00,,,0.18,0.000000,,2013-10-09 03:54:00,
2013-10-08 21:05:00,37.0,34.0,-100.00,NNW,347,3.0,6.0,87,0.00,,,0.18,0.000000,,2013-10-09 04:05:00,
2013-10-08 21:14:00,37.0,34.0,-100.00,NNW,347,3.0,6.0,87,0.00,,,0.18,0.000000,,2013-10-09 04:14:00,
2013-10-08 21:54:00,37.0,33.0,-100.00,WNW,285,1.0,6.0,85,0.00,,,0.18,0.000000,,2013-10-09 04:54:00,
2013-10-08 22:04:00,37.0,33.0,-100.00,WNW,285,1.0,6.0,85,0.00,,,0.18,0.000000,,2013-10-09 05:04:00,
2013-10-08 22:13:00,37.0,33.0,-100.00,WNW,285,1.0,6.0,85,0.00,,,0.18,0.000000,,2013-10-09 05:13:00,
2013-10-08 22:42:00,35.0,32.0,-100.00,NW,316,1.0,4.0,87,0.00,,,0.18,0.000000,,2013-10-09 05:42:00,
2013-10-08 22:52:00,35.0,32.0,-100.00,NW,316,1.0,4.0,87,0.00,,,0.18,0.000000,,2013-10-09 05:52:00,
2013-10-08 23:02:00,35.0,32.0,-100.00,NW,316,1.0,4.0,87,0.00,,,0.18,0.000000,,2013-10-09 06:02:00,
2013-10-08 23:12:00,35.0,32.0,-100.00,NW,316,1.0,4.0,87,0.00,,,0.18,0.000000,,2013-10-09 06:12:00,
2013-10-08 23:42:00,37.0,33.0,-100.00,NW,323,0.0,3.0,85,0.00,,,0.18,0.000000,,2013-10-09 06:42:00,
2013-10-08 23:52:00,37.0,33.0,-100.00,NW,323,0.0,3.0,85,0.00,,,0.18,0.000000,,2013-10-09 06:52:00,